createdAt,value
2018-11-28T00:00:07.363Z,4.74
2018-11-28T00:02:33.710Z,4.74
2018-11-28T00:05:00.010Z,4.77
2018-11-28T00:07:26.310Z,4.77
2018-11-28T00:09:52.657Z,4.77
2018-11-28T00:12:18.977Z,4.71
2018-11-28T00:14:45.290Z,4.59
2018-11-28T00:17:11.592Z,4.52
2018-11-28T00:19:37.903Z,4.50
2018-11-28T00:22:04.230Z,4.52
2018-11-28T00:24:30.544Z,4.49
2018-11-28T00:26:56.849Z,4.51
2018-11-28T00:29:23.142Z,4.46
2018-11-28T00:31:49.489Z,4.37
2018-11-28T00:34:15.792Z,4.32
2018-11-28T00:36:42.110Z,4.34
2018-11-28T00:39:08.429Z,4.30
2018-11-28T00:41:34.741Z,4.31
2018-11-28T00:44:01.041Z,4.20
2018-11-28T00:46:27.369Z,4.21
2018-11-28T00:48:53.675Z,4.20
2018-11-28T00:51:19.996Z,4.25
2018-11-28T00:53:46.304Z,4.22
2018-11-28T00:56:12.677Z,4.16
2018-11-28T00:58:39.000Z,4.16
2018-11-28T01:01:05.319Z,4.03
2018-11-28T01:03:31.654Z,3.99
2018-11-28T01:05:57.967Z,3.96
2018-11-28T01:08:24.260Z,3.90
2018-11-28T01:10:50.574Z,3.82
2018-11-28T01:13:16.897Z,3.83
2018-11-28T01:15:43.185Z,3.77
2018-11-28T01:18:09.540Z,3.76
2018-11-28T01:20:35.869Z,3.74
2018-11-28T01:23:02.163Z,3.76
2018-11-28T01:25:28.455Z,3.69
2018-11-28T01:27:54.799Z,3.69
2018-11-28T01:30:21.113Z,3.75
2018-11-28T01:32:47.458Z,3.73
2018-11-28T01:35:13.792Z,3.69
2018-11-28T01:37:40.110Z,3.71
2018-11-28T01:40:06.401Z,3.74
2018-11-28T01:42:32.726Z,3.77
2018-11-28T01:44:59.038Z,3.77
2018-11-28T01:47:25.358Z,3.75
2018-11-28T01:49:51.686Z,3.64
2018-11-28T01:52:18.007Z,3.67
2018-11-28T01:54:44.372Z,3.70
2018-11-28T01:57:10.723Z,3.64
2018-11-28T01:59:37.056Z,3.73
2018-11-28T02:02:03.376Z,3.64
2018-11-28T02:04:29.671Z,3.64
2018-11-28T02:06:56.009Z,3.59
2018-11-28T02:09:22.314Z,3.58
2018-11-28T02:11:48.619Z,3.55
2018-11-28T02:14:14.933Z,3.47
2018-11-28T02:16:41.249Z,3.46
2018-11-28T02:19:07.552Z,3.45
2018-11-28T02:21:33.863Z,3.43
2018-11-28T02:24:00.195Z,3.34
2018-11-28T02:26:26.489Z,3.42
2018-11-28T02:28:52.802Z,3.26
2018-11-28T02:31:19.113Z,3.23
2018-11-28T02:33:45.443Z,3.09
2018-11-28T02:36:11.792Z,2.84
2018-11-28T02:38:38.100Z,2.75
2018-11-28T02:41:04.391Z,2.65
2018-11-28T02:43:30.707Z,2.63
2018-11-28T02:45:57.045Z,2.38
2018-11-28T02:48:23.356Z,2.36
2018-11-28T02:50:49.691Z,2.32
2018-11-28T02:53:16.021Z,2.26
2018-11-28T02:55:42.319Z,2.25
2018-11-28T02:58:08.633Z,2.25
2018-11-28T03:00:34.966Z,2.22
2018-11-28T03:03:01.290Z,2.19
2018-11-28T03:05:27.644Z,2.17
2018-11-28T03:07:53.934Z,2.08
2018-11-28T03:10:20.251Z,2.05
2018-11-28T03:12:46.579Z,2.03
2018-11-28T03:15:12.902Z,1.95
2018-11-28T03:17:39.230Z,1.94
2018-11-28T03:20:05.560Z,1.83
2018-11-28T03:22:31.870Z,1.78
2018-11-28T03:24:58.211Z,1.63
2018-11-28T03:27:24.517Z,1.46
2018-11-28T03:29:50.847Z,1.43
2018-11-28T03:32:17.159Z,1.49
2018-11-28T03:34:45.553Z,1.48
2018-11-28T03:37:09.802Z,1.48
2018-11-28T03:39:36.114Z,1.49
2018-11-28T03:42:02.418Z,1.46
2018-11-28T03:44:28.703Z,1.45
2018-11-28T03:46:55.066Z,1.51
2018-11-28T03:49:21.363Z,1.43
2018-11-28T03:51:47.709Z,1.43
2018-11-28T03:54:14.045Z,1.37
2018-11-28T03:56:40.373Z,1.43
2018-11-28T03:59:06.717Z,1.27
2018-11-28T04:01:33.053Z,1.26
2018-11-28T04:03:59.360Z,1.20
2018-11-28T04:06:25.654Z,1.10
2018-11-28T04:08:52.000Z,1.19
2018-11-28T04:11:18.302Z,1.21
2018-11-28T04:13:44.595Z,1.20
2018-11-28T04:16:10.899Z,1.23
2018-11-28T04:18:37.216Z,1.16
2018-11-28T04:21:03.536Z,1.17
2018-11-28T04:23:29.876Z,1.17
2018-11-28T04:25:56.165Z,1.25
2018-11-28T04:28:22.491Z,1.23
2018-11-28T04:30:48.876Z,1.24
2018-11-28T04:33:15.165Z,1.24
2018-11-28T04:35:41.487Z,1.19
2018-11-28T04:38:07.824Z,1.21
2018-11-28T04:40:34.156Z,1.28
2018-11-28T04:43:00.463Z,1.21
2018-11-28T04:45:26.810Z,1.23
2018-11-28T04:47:53.112Z,1.30
2018-11-28T04:50:19.432Z,1.35
2018-11-28T04:52:45.777Z,1.28
2018-11-28T04:55:12.078Z,1.30
2018-11-28T04:57:38.373Z,1.31
2018-11-28T05:00:04.692Z,1.35
2018-11-28T05:02:31.023Z,1.28
2018-11-28T05:04:57.310Z,1.26
2018-11-28T05:07:23.682Z,1.26
2018-11-28T05:09:49.999Z,1.24
2018-11-28T05:12:16.311Z,1.19
2018-11-28T05:14:42.614Z,1.19
2018-11-28T05:17:08.940Z,1.18
2018-11-28T05:19:35.285Z,1.28
2018-11-28T05:22:01.543Z,2.65
2018-11-28T05:24:27.908Z,2.58
2018-11-28T05:26:54.211Z,3.06
2018-11-28T05:29:20.524Z,2.95
2018-11-28T05:31:46.833Z,2.56
2018-11-28T05:34:13.226Z,2.43
2018-11-28T05:36:39.530Z,2.56
2018-11-28T05:39:05.863Z,2.14
2018-11-28T05:41:32.232Z,1.90
2018-11-28T05:43:58.551Z,1.75
2018-11-28T05:46:24.860Z,1.54
2018-11-28T05:48:51.190Z,1.54
2018-11-28T05:51:17.517Z,1.45
2018-11-28T05:53:43.839Z,1.42
2018-11-28T05:56:10.213Z,1.95
2018-11-28T05:58:36.538Z,2.60
2018-11-28T06:01:02.824Z,2.83
2018-11-28T06:03:29.130Z,2.97
2018-11-28T06:05:55.448Z,3.23
2018-11-28T06:08:21.767Z,3.12
2018-11-28T06:10:48.084Z,3.47
2018-11-28T06:13:14.411Z,3.25
2018-11-28T06:15:40.736Z,3.41
2018-11-28T06:18:07.036Z,2.98
2018-11-28T06:20:33.379Z,2.62
2018-11-28T06:22:59.675Z,2.97
2018-11-28T06:25:26.000Z,2.34
2018-11-28T06:27:52.319Z,2.25
2018-11-28T06:30:18.676Z,2.33
2018-11-28T06:32:51.045Z,2.17
2018-11-28T06:35:11.421Z,1.97
2018-11-28T06:37:37.723Z,2.09
2018-11-28T06:40:04.056Z,2.41
2018-11-28T06:42:30.367Z,2.88
2018-11-28T06:44:56.683Z,2.62
2018-11-28T06:47:23.023Z,2.23
2018-11-28T06:49:49.330Z,2.29
2018-11-28T06:52:15.644Z,2.05
2018-11-28T06:54:41.947Z,1.74
2018-11-28T06:57:08.321Z,1.55
2018-11-28T06:59:34.705Z,1.29
2018-11-28T07:02:01.009Z,1.23
2018-11-28T07:04:27.344Z,1.16
2018-11-28T07:06:53.729Z,1.22
2018-11-28T07:09:20.038Z,1.23
2018-11-28T07:11:46.341Z,0.86
2018-11-28T07:14:12.682Z,0.66
2018-11-28T07:16:39.023Z,1.06
2018-11-28T07:19:05.337Z,1.14
2018-11-28T07:21:31.684Z,1.29
2018-11-28T07:23:57.997Z,1.26
2018-11-28T07:26:24.320Z,1.24
2018-11-28T07:28:50.631Z,1.18
2018-11-28T07:31:16.938Z,0.76
2018-11-28T07:33:43.255Z,1.05
2018-11-28T07:36:09.611Z,0.81
2018-11-28T07:38:35.922Z,0.78
2018-11-28T07:41:02.213Z,1.37
2018-11-28T07:43:28.549Z,1.59
2018-11-28T07:45:54.854Z,1.52
2018-11-28T07:48:21.148Z,1.38
2018-11-28T07:50:47.633Z,1.33
2018-11-28T07:53:13.801Z,1.26
2018-11-28T07:55:40.139Z,1.22
2018-11-28T07:58:06.450Z,1.22
2018-11-28T08:00:32.766Z,1.22
2018-11-28T08:02:59.057Z,1.29
2018-11-28T08:05:25.429Z,1.15
2018-11-28T08:07:51.731Z,1.07
2018-11-28T08:10:18.087Z,0.89
2018-11-28T08:12:44.420Z,1.00
2018-11-28T08:15:10.753Z,0.99
2018-11-28T08:17:37.062Z,0.98
2018-11-28T08:20:03.381Z,1.09
2018-11-28T08:22:29.720Z,0.91
2018-11-28T08:24:56.023Z,0.80
2018-11-28T08:27:22.352Z,1.22
2018-11-28T08:29:48.679Z,1.15
2018-11-28T08:32:15.003Z,1.18
2018-11-28T08:34:41.459Z,1.84
2018-11-28T08:37:07.776Z,1.33
2018-11-28T08:39:34.108Z,1.20
2018-11-28T08:42:00.407Z,1.30
2018-11-28T08:44:26.730Z,1.09
2018-11-28T08:46:53.063Z,1.04
2018-11-28T08:49:19.392Z,1.00
2018-11-28T08:51:45.686Z,1.10
2018-11-28T08:54:14.369Z,1.21
2018-11-28T08:56:38.586Z,1.20
2018-11-28T08:59:04.966Z,1.40
2018-11-28T09:01:31.259Z,1.68
2018-11-28T09:03:57.618Z,1.73
2018-11-28T09:06:23.907Z,1.63
2018-11-28T09:08:50.202Z,1.64
2018-11-28T09:11:16.544Z,1.66
2018-11-28T09:13:42.870Z,1.58
2018-11-28T09:16:09.201Z,1.30
2018-11-28T09:18:35.502Z,1.75
2018-11-28T09:21:01.813Z,1.58
2018-11-28T09:23:28.137Z,1.69
2018-11-28T09:25:54.529Z,1.50
2018-11-28T09:28:20.841Z,1.71
2018-11-28T09:30:47.277Z,1.74
2018-11-28T09:33:13.670Z,1.77
2018-11-28T09:35:43.569Z,1.87
2018-11-28T09:38:08.636Z,1.50
2018-11-28T09:40:34.949Z,1.41
2018-11-28T09:43:01.272Z,1.37
2018-11-28T09:45:27.677Z,1.40
2018-11-28T09:47:54.008Z,1.29
2018-11-28T09:50:20.310Z,1.30
2018-11-28T09:52:46.626Z,1.27
2018-11-28T09:55:12.936Z,1.24
2018-11-28T09:57:39.275Z,1.18
2018-11-28T10:00:07.023Z,1.14
2018-11-28T10:02:33.324Z,0.99
2018-11-28T10:05:02.731Z,0.90
2018-11-28T10:07:25.975Z,1.06
2018-11-28T10:09:52.373Z,1.14
2018-11-28T10:12:19.784Z,1.12
2018-11-28T10:14:45.051Z,1.02
2018-11-28T10:17:11.386Z,0.97
2018-11-28T10:19:37.696Z,0.95
2018-11-28T10:22:04.018Z,0.80
2018-11-28T10:24:30.347Z,0.89
2018-11-28T10:26:56.659Z,0.95
2018-11-28T10:29:22.955Z,1.00
2018-11-28T10:31:49.282Z,0.91
2018-11-28T10:34:15.619Z,0.91
2018-11-28T10:36:41.987Z,0.96
2018-11-28T10:39:08.319Z,1.00
2018-11-28T10:41:34.693Z,0.95
2018-11-28T10:44:00.942Z,1.01
2018-11-28T10:46:27.668Z,1.00
2018-11-28T10:48:53.552Z,0.99
2018-11-28T10:51:19.870Z,1.03
2018-11-28T10:53:46.168Z,0.96
2018-11-28T10:56:12.476Z,0.95
2018-11-28T10:58:38.796Z,1.02
2018-11-28T11:01:05.116Z,1.05
2018-11-28T11:03:31.454Z,0.99
2018-11-28T11:05:57.780Z,0.99
2018-11-28T11:08:24.096Z,1.02
2018-11-28T11:10:50.424Z,1.00
2018-11-28T11:13:16.766Z,1.04
2018-11-28T11:15:43.069Z,1.04
2018-11-28T11:18:10.733Z,1.07
2018-11-28T11:20:35.742Z,1.01
2018-11-28T11:23:02.073Z,1.05
2018-11-28T11:25:28.431Z,1.07
2018-11-28T11:27:54.758Z,1.07
2018-11-28T11:30:21.096Z,0.89
2018-11-28T11:32:47.437Z,0.77
2018-11-28T11:35:13.722Z,0.83
2018-11-28T11:37:40.034Z,0.88
2018-11-28T11:40:06.373Z,0.96
2018-11-28T11:42:32.681Z,0.95
2018-11-28T11:44:59.031Z,0.96
2018-11-28T11:47:25.413Z,0.94
2018-11-28T11:49:51.732Z,0.87
2018-11-28T11:52:18.092Z,0.89
2018-11-28T11:54:44.422Z,0.91
2018-11-28T11:57:10.800Z,0.89
2018-11-28T11:59:37.126Z,0.85
2018-11-28T12:02:03.444Z,0.80
2018-11-28T12:04:29.785Z,0.87
2018-11-28T12:06:56.090Z,0.85
2018-11-28T12:09:22.419Z,0.88
2018-11-28T12:11:48.737Z,0.76
2018-11-28T12:14:15.145Z,0.84
2018-11-28T12:16:41.452Z,0.82
2018-11-28T12:19:07.847Z,0.83
2018-11-28T12:21:34.122Z,0.88
2018-11-28T12:24:00.474Z,0.86
2018-11-28T12:26:26.818Z,0.87
2018-11-28T12:28:53.135Z,0.98
2018-11-28T12:31:19.489Z,0.95
2018-11-28T12:33:45.784Z,0.87
2018-11-28T12:36:12.157Z,1.13
2018-11-28T12:38:40.892Z,0.91
2018-11-28T12:41:07.210Z,0.80
2018-11-28T12:43:33.552Z,0.69
2018-11-28T12:45:59.935Z,0.69
2018-11-28T12:48:26.253Z,0.74
2018-11-28T12:50:52.601Z,0.78
2018-11-28T12:53:18.966Z,0.88
2018-11-28T12:55:45.289Z,0.89
2018-11-28T12:58:11.604Z,0.86
2018-11-28T13:00:37.938Z,0.74
2018-11-28T13:03:04.230Z,0.75
2018-11-28T13:05:30.535Z,0.76
2018-11-28T13:07:56.892Z,0.75
2018-11-28T13:10:23.285Z,0.78
2018-11-28T13:12:49.609Z,0.74
2018-11-28T13:15:15.979Z,0.78
2018-11-28T13:17:42.279Z,0.72
2018-11-28T13:20:08.628Z,0.72
2018-11-28T13:22:34.964Z,0.63
2018-11-28T13:25:01.355Z,0.61
2018-11-28T13:27:27.692Z,0.55
2018-11-28T13:29:54.026Z,0.51
2018-11-28T13:32:20.406Z,0.50
2018-11-28T13:34:46.751Z,0.50
2018-11-28T13:37:13.113Z,0.45
2018-11-28T13:39:39.494Z,0.49
2018-11-28T13:42:05.850Z,0.46
2018-11-28T13:44:32.165Z,0.44
2018-11-28T13:46:58.498Z,0.52
2018-11-28T13:49:24.876Z,0.54
2018-11-28T13:51:51.178Z,0.41
2018-11-28T13:54:21.374Z,0.33
2018-11-28T13:57:02.993Z,0.41
2018-11-28T13:59:10.292Z,0.21
2018-11-28T14:01:36.607Z,0.15
2018-11-28T14:04:02.935Z,0.19
2018-11-28T14:06:29.287Z,0.16
2018-11-28T14:08:55.629Z,0.15
2018-11-28T14:11:21.939Z,0.17
2018-11-28T14:13:48.236Z,0.11
2018-11-28T14:16:14.560Z,0.02
2018-11-28T14:18:40.909Z,0.11
2018-11-28T14:21:07.235Z,0.03
2018-11-28T14:23:33.550Z,0.05
2018-11-28T14:25:59.889Z,0.00
2018-11-28T14:28:26.212Z,-0.14
2018-11-28T14:30:52.543Z,-0.21
2018-11-28T14:33:18.886Z,-0.20
2018-11-28T14:35:45.309Z,-0.21
2018-11-28T14:38:11.601Z,-0.30
2018-11-28T14:40:37.911Z,-0.39
2018-11-28T14:43:04.232Z,-0.34
2018-11-28T14:45:30.554Z,-0.32
2018-11-28T14:47:56.894Z,-0.35
2018-11-28T14:50:23.194Z,-0.49
2018-11-28T14:52:49.568Z,-0.45
2018-11-28T14:55:15.846Z,-0.43
2018-11-28T14:57:42.173Z,-0.43
2018-11-28T15:00:08.523Z,-0.44
2018-11-28T15:02:34.840Z,-0.48
2018-11-28T15:05:01.173Z,-0.44
2018-11-28T15:07:27.487Z,-0.42
2018-11-28T15:09:53.831Z,-0.51
2018-11-28T15:12:20.152Z,-0.57
2018-11-28T15:14:46.478Z,-0.56
2018-11-28T15:17:12.852Z,-0.65
2018-11-28T15:19:39.209Z,-0.57
2018-11-28T15:22:05.616Z,-0.63
2018-11-28T15:24:31.906Z,-0.64
2018-11-28T15:26:58.240Z,-0.64
2018-11-28T15:29:24.546Z,-0.61
2018-11-28T15:31:50.892Z,-0.72
2018-11-28T15:34:17.220Z,-0.72
2018-11-28T15:36:43.514Z,-0.64
2018-11-28T15:39:09.818Z,-0.67
2018-11-28T15:41:36.149Z,-0.60
2018-11-28T15:44:02.467Z,-0.56
2018-11-28T15:46:28.815Z,-0.55
2018-11-28T15:48:55.124Z,-0.57
2018-11-28T15:51:21.419Z,-0.58
2018-11-28T15:53:47.719Z,-0.57
2018-11-28T15:56:14.065Z,-0.52
2018-11-28T15:58:40.402Z,-0.53
2018-11-28T16:01:06.698Z,-0.55
2018-11-28T16:03:33.037Z,-0.64
2018-11-28T16:05:59.353Z,-0.60
2018-11-28T16:08:25.651Z,-0.61
2018-11-28T16:10:51.983Z,-0.64
2018-11-28T16:13:18.290Z,-0.67
2018-11-28T16:15:44.574Z,-0.58
2018-11-28T16:18:10.919Z,-0.51
2018-11-28T16:20:37.293Z,-0.47
2018-11-28T16:23:04.788Z,-0.53
2018-11-28T16:25:29.988Z,-0.56
2018-11-28T16:27:56.311Z,-0.56
2018-11-28T16:30:22.675Z,-0.58
2018-11-28T16:32:48.977Z,-0.55
2018-11-28T16:35:15.331Z,-0.67
2018-11-28T16:37:41.665Z,-0.65
2018-11-28T16:40:07.983Z,-0.70
2018-11-28T16:42:34.277Z,-0.69
2018-11-28T16:45:00.614Z,-0.76
2018-11-28T16:47:26.904Z,-0.82
2018-11-28T16:49:53.227Z,-0.95
2018-11-28T16:52:20.262Z,-1.04
2018-11-28T16:54:46.554Z,-0.97
2018-11-28T16:57:12.928Z,-1.00
2018-11-28T16:59:39.299Z,-1.09
2018-11-28T17:02:05.590Z,-1.11
2018-11-28T17:04:31.997Z,-1.09
2018-11-28T17:06:58.510Z,-1.14
2018-11-28T17:09:24.976Z,-1.14
2018-11-28T17:11:51.354Z,-1.11
2018-11-28T17:14:17.659Z,-1.17
2018-11-28T17:16:43.996Z,-1.14
2018-11-28T17:19:10.302Z,-1.06
2018-11-28T17:21:36.600Z,-1.13
2018-11-28T17:24:02.945Z,-1.23
2018-11-28T17:26:29.235Z,-1.34
2018-11-28T17:28:55.565Z,-1.27
2018-11-28T17:31:21.893Z,-1.21
2018-11-28T17:33:48.199Z,-1.14
2018-11-28T17:36:14.545Z,-1.19
2018-11-28T17:38:40.867Z,-1.19
2018-11-28T17:41:07.228Z,-1.20
2018-11-28T17:43:33.552Z,-1.25
2018-11-28T17:45:59.883Z,-1.34
2018-11-28T17:48:26.171Z,-1.39
2018-11-28T17:50:52.494Z,-1.37
2018-11-28T17:53:18.830Z,-1.28
2018-11-28T17:55:45.263Z,-1.24
2018-11-28T17:58:11.588Z,-1.39
2018-11-28T18:00:37.898Z,-1.43
2018-11-28T18:03:04.198Z,-1.42
2018-11-28T18:05:30.511Z,-1.44
2018-11-28T18:07:56.846Z,-1.34
2018-11-28T18:10:23.170Z,-1.28
2018-11-28T18:12:49.506Z,-1.31
2018-11-28T18:15:15.765Z,-1.39
2018-11-28T18:17:42.097Z,-1.51
2018-11-28T18:20:08.430Z,-1.39
2018-11-28T18:22:34.739Z,-1.38
2018-11-28T18:25:01.072Z,-1.31
2018-11-28T18:27:27.383Z,-1.17
2018-11-28T18:29:53.704Z,-1.19
2018-11-28T18:32:20.038Z,-1.16
2018-11-28T18:34:46.355Z,-1.18
2018-11-28T18:37:12.681Z,-1.10
2018-11-28T18:39:38.997Z,-1.08
2018-11-28T18:42:05.322Z,-1.13
2018-11-28T18:44:31.623Z,-1.19
2018-11-28T18:46:57.933Z,-1.14
2018-11-28T18:49:24.255Z,-1.08
2018-11-28T18:51:51.646Z,-1.03
2018-11-28T18:54:17.933Z,-1.04
2018-11-28T18:56:44.247Z,-1.11
2018-11-28T18:59:10.579Z,-1.11
2018-11-28T19:01:36.892Z,-1.14
2018-11-28T19:04:03.215Z,-1.21
2018-11-28T19:06:29.558Z,-1.06
2018-11-28T19:08:55.866Z,-0.95
2018-11-28T19:11:22.184Z,-1.03
2018-11-28T19:13:48.496Z,-1.04
2018-11-28T19:16:14.829Z,-0.99
2018-11-28T19:18:41.159Z,-0.91
2018-11-28T19:21:07.467Z,-0.96
2018-11-28T19:23:33.781Z,-0.95
2018-11-28T19:26:00.143Z,-0.97
2018-11-28T19:28:26.449Z,-0.99
2018-11-28T19:30:52.778Z,-0.95
2018-11-28T19:33:19.115Z,-0.97
2018-11-28T19:35:45.493Z,-1.07
2018-11-28T19:38:11.811Z,-1.11
2018-11-28T19:40:38.130Z,-1.05
2018-11-28T19:43:04.532Z,-1.06
2018-11-28T19:45:30.771Z,-1.19
2018-11-28T19:47:57.072Z,-1.24
2018-11-28T19:50:23.409Z,-1.29
2018-11-28T19:52:49.701Z,-1.30
2018-11-28T19:55:16.006Z,-1.27
2018-11-28T19:57:42.352Z,-1.27
2018-11-28T20:00:08.640Z,-1.22
2018-11-28T20:02:34.949Z,-1.22
2018-11-28T20:05:01.254Z,-1.27
2018-11-28T20:07:27.551Z,-1.30
2018-11-28T20:09:53.864Z,-1.37
2018-11-28T20:12:20.207Z,-1.38
2018-11-28T20:14:46.579Z,-1.34
2018-11-28T20:17:12.859Z,-1.35
2018-11-28T20:19:39.199Z,-1.49
2018-11-28T20:22:05.517Z,-1.53
2018-11-28T20:24:31.868Z,-1.56
2018-11-28T20:26:58.260Z,-1.55
2018-11-28T20:29:24.478Z,-1.62
2018-11-28T20:31:50.791Z,-1.58
2018-11-28T20:34:17.105Z,-1.57
2018-11-28T20:36:43.414Z,-1.54
2018-11-28T20:39:09.723Z,-1.55
2018-11-28T20:41:36.062Z,-1.56
2018-11-28T20:44:02.353Z,-1.59
2018-11-28T20:46:28.646Z,-1.58
2018-11-28T20:48:54.972Z,-1.69
2018-11-28T20:51:21.290Z,-1.80
2018-11-28T20:53:47.579Z,-2.04
2018-11-28T20:56:13.869Z,-2.07
2018-11-28T20:58:40.168Z,-2.12
2018-11-28T21:01:06.481Z,-2.16
2018-11-28T21:03:32.808Z,-2.24
2018-11-28T21:05:59.173Z,-2.19
2018-11-28T21:08:25.463Z,-2.09
2018-11-28T21:10:51.749Z,-2.23
2018-11-28T21:13:18.065Z,-2.29
2018-11-28T21:15:44.370Z,-2.39
2018-11-28T21:18:10.662Z,-2.39
2018-11-28T21:20:36.994Z,-2.33
2018-11-28T21:23:03.314Z,-2.32
2018-11-28T21:25:29.637Z,-2.32
2018-11-28T21:27:55.943Z,-2.33
2018-11-28T21:30:22.289Z,-2.32
2018-11-28T21:32:48.586Z,-2.33
2018-11-28T21:35:14.905Z,-2.33
2018-11-28T21:37:43.940Z,-2.30
2018-11-28T21:40:10.251Z,-2.27
2018-11-28T21:42:36.561Z,-2.21
2018-11-28T21:45:02.908Z,-2.19
2018-11-28T21:47:29.190Z,-2.24
2018-11-28T21:49:55.492Z,-2.33
2018-11-28T21:52:21.824Z,-2.29
2018-11-28T21:54:48.134Z,-2.24
2018-11-28T21:57:14.417Z,-2.26
2018-11-28T21:59:40.782Z,-2.28
2018-11-28T22:02:07.076Z,-2.22
2018-11-28T22:04:33.391Z,-2.27
2018-11-28T22:06:59.708Z,-2.29
2018-11-28T22:09:26.115Z,-2.28
2018-11-28T22:11:52.429Z,-2.29
2018-11-28T22:14:18.726Z,-2.25
2018-11-28T22:16:45.034Z,-2.31
2018-11-28T22:19:11.373Z,-2.30
2018-11-28T22:21:37.693Z,-2.22
2018-11-28T22:24:04.022Z,-2.25
2018-11-28T22:26:30.345Z,-2.23
2018-11-28T22:28:56.654Z,-2.10
2018-11-28T22:31:22.979Z,-2.23
2018-11-28T22:33:49.289Z,-2.33
2018-11-28T22:36:15.602Z,-2.27
2018-11-28T22:38:41.927Z,-2.35
2018-11-28T22:41:08.273Z,-2.40
2018-11-28T22:43:34.660Z,-2.36
2018-11-28T22:46:00.989Z,-2.36
2018-11-28T22:48:27.302Z,-2.39
2018-11-28T22:50:53.639Z,-2.31
2018-11-28T22:53:20.017Z,-2.35
2018-11-28T22:55:46.337Z,-2.36
2018-11-28T22:58:12.646Z,-2.39
2018-11-28T23:00:38.956Z,-2.36
2018-11-28T23:03:05.266Z,-2.35
2018-11-28T23:05:31.555Z,-2.47
2018-11-28T23:07:57.873Z,-2.59
2018-11-28T23:10:24.179Z,-2.63
2018-11-28T23:12:50.485Z,-2.66
2018-11-28T23:15:16.776Z,-2.55
2018-11-28T23:17:43.126Z,-2.69
2018-11-28T23:20:09.415Z,-2.73
2018-11-28T23:22:35.716Z,-2.74
2018-11-28T23:25:02.017Z,-2.74
2018-11-28T23:27:28.340Z,-2.75
2018-11-28T23:29:54.636Z,-2.69
2018-11-28T23:32:20.957Z,-2.70
2018-11-28T23:34:47.261Z,-2.76
2018-11-28T23:37:13.582Z,-2.79
2018-11-28T23:39:39.987Z,-2.83
2018-11-28T23:42:06.296Z,-2.79
2018-11-28T23:44:32.613Z,-2.73
2018-11-28T23:46:58.907Z,-2.68
2018-11-28T23:49:25.250Z,-2.61
2018-11-28T23:51:51.551Z,-2.67
2018-11-28T23:54:17.881Z,-2.63
2018-11-28T23:56:44.203Z,-2.61
2018-11-28T23:59:10.523Z,-2.57
